createdAt,value
2022-12-29T00:01:53.685Z,100827.37
2022-12-29T00:04:56.461Z,100822.38
2022-12-29T00:07:59.319Z,100826.81
2022-12-29T00:11:02.483Z,100821.53
2022-12-29T00:14:26.172Z,100821.47
2022-12-29T00:17:29.199Z,100822.19
2022-12-29T00:20:53.880Z,100821.53
2022-12-29T00:24:28.555Z,100822.47
2022-12-29T00:27:52.962Z,100826.47
2022-12-29T00:31:18.775Z,100828.03
2022-12-29T00:34:43.955Z,100832.19
2022-12-29T00:38:07.290Z,100835.72
2022-12-29T00:41:28.545Z,100833.84
2022-12-29T00:44:34.646Z,100835.62
2022-12-29T00:47:37.373Z,100832.19
2022-12-29T00:50:40.222Z,100834.16
2022-12-29T00:53:44.397Z,100827.19
2022-12-29T00:56:48.960Z,100833.13
2022-12-29T00:59:52.441Z,100832.81
2022-12-29T01:02:55.591Z,100830.09
2022-12-29T01:06:02.085Z,100831.84
2022-12-29T01:09:24.408Z,100826.00
2022-12-29T01:12:42.322Z,100819.22
2022-12-29T01:15:51.426Z,100819.34
2022-12-29T01:18:54.289Z,100821.00
2022-12-29T01:21:57.286Z,100804.69
2022-12-29T01:25:00.019Z,100810.31
2022-12-29T01:28:02.827Z,100808.47
2022-12-29T01:31:05.588Z,100808.66
2022-12-29T01:34:08.491Z,100813.66
2022-12-29T01:37:12.112Z,100801.12
2022-12-29T01:40:15.000Z,100799.44
2022-12-29T01:43:17.690Z,100790.00
2022-12-29T01:46:26.498Z,100791.12
2022-12-29T01:49:30.530Z,100790.09
2022-12-29T01:52:39.907Z,100784.91
2022-12-29T01:55:53.040Z,100783.03
2022-12-29T01:59:03.133Z,100783.56
2022-12-29T02:02:06.224Z,100781.91
2022-12-29T02:05:21.391Z,100784.59
2022-12-29T02:08:27.112Z,100775.78
2022-12-29T02:11:30.907Z,100776.09
2022-12-29T02:14:34.488Z,100775.91
2022-12-29T02:17:46.640Z,100776.63
2022-12-29T02:21:26.443Z,100776.00
2022-12-29T02:24:56.842Z,100767.25
2022-12-29T02:28:21.442Z,100766.84
2022-12-29T02:31:30.082Z,100754.53
2022-12-29T02:35:06.851Z,100747.34
2022-12-29T02:38:16.231Z,100743.19
2022-12-29T02:41:33.780Z,100749.31
2022-12-29T02:45:03.390Z,100736.22
2022-12-29T02:48:35.739Z,100736.31
2022-12-29T02:52:04.855Z,100743.28
2022-12-29T02:55:08.299Z,100736.53
2022-12-29T02:58:23.039Z,100737.66
2022-12-29T03:02:04.192Z,100738.78
2022-12-29T03:05:31.503Z,100733.16
2022-12-29T03:08:57.465Z,100727.91
2022-12-29T03:12:09.409Z,100736.88
2022-12-29T03:15:36.171Z,100738.75
2022-12-29T03:18:53.375Z,100737.09
2022-12-29T03:22:17.734Z,100728.28
2022-12-29T03:25:30.901Z,100732.53
2022-12-29T03:28:37.841Z,100734.94
2022-12-29T03:31:41.992Z,100728.91
2022-12-29T03:34:44.817Z,100736.50
2022-12-29T03:38:01.232Z,100737.16
2022-12-29T03:41:07.197Z,100739.00
2022-12-29T03:44:10.416Z,100747.38
2022-12-29T03:47:15.706Z,100740.25
2022-12-29T03:50:18.533Z,100731.72
2022-12-29T03:53:21.296Z,100730.69
2022-12-29T03:56:24.136Z,100725.50
2022-12-29T03:59:30.066Z,100725.59
2022-12-29T04:02:33.180Z,100715.63
2022-12-29T04:05:40.082Z,100732.84
2022-12-29T04:08:42.950Z,100720.38
2022-12-29T04:11:46.092Z,100723.22
2022-12-29T04:14:48.884Z,100728.75
2022-12-29T04:17:51.681Z,100721.56
2022-12-29T04:21:06.726Z,100706.28
2022-12-29T04:24:10.480Z,100719.72
2022-12-29T04:27:13.175Z,100721.81
2022-12-29T04:30:16.169Z,100714.13
2022-12-29T04:33:24.310Z,100727.53
2022-12-29T04:36:30.057Z,100713.97
2022-12-29T04:39:36.580Z,100727.38
2022-12-29T04:42:39.373Z,100730.06
2022-12-29T04:45:46.442Z,100723.31
2022-12-29T04:48:49.232Z,100733.50
2022-12-29T04:51:52.556Z,100732.13
2022-12-29T04:54:56.630Z,100747.56
2022-12-29T04:57:59.401Z,100740.09
2022-12-29T05:01:02.359Z,100743.19
2022-12-29T05:04:08.227Z,100741.28
2022-12-29T05:07:13.984Z,100735.03
2022-12-29T05:10:17.233Z,100739.00
2022-12-29T05:13:21.202Z,100738.03
2022-12-29T05:16:24.100Z,100731.25
2022-12-29T05:19:27.126Z,100725.91
2022-12-29T05:22:29.978Z,100725.59
2022-12-29T05:25:32.711Z,100723.22
2022-12-29T05:28:38.291Z,100716.59
2022-12-29T05:31:44.460Z,100723.06
2022-12-29T05:34:47.527Z,100728.19
2022-12-29T05:37:50.380Z,100727.44
2022-12-29T05:40:53.202Z,100734.84
2022-12-29T05:43:55.987Z,100733.19
2022-12-29T05:46:58.668Z,100732.16
2022-12-29T05:50:02.228Z,100726.97
2022-12-29T05:53:04.913Z,100729.66
2022-12-29T05:56:08.011Z,100732.78
2022-12-29T05:59:10.783Z,100738.56
2022-12-29T06:02:16.465Z,100737.25
2022-12-29T06:05:20.179Z,100723.22
2022-12-29T06:08:23.018Z,100738.03
2022-12-29T06:11:25.941Z,100736.56
2022-12-29T06:14:28.711Z,100739.34
2022-12-29T06:17:31.525Z,100750.22
2022-12-29T06:20:34.392Z,100745.13
2022-12-29T06:23:37.210Z,100736.62
2022-12-29T06:26:41.343Z,100742.94
2022-12-29T06:29:44.204Z,100740.72
2022-12-29T06:32:47.295Z,100745.16
2022-12-29T06:35:50.136Z,100749.97
2022-12-29T06:38:53.844Z,100746.81
2022-12-29T06:41:56.652Z,100754.97
2022-12-29T06:45:01.975Z,100760.53
2022-12-29T06:48:04.982Z,100761.00
2022-12-29T06:51:07.848Z,100762.13
2022-12-29T06:54:10.916Z,100764.34
2022-12-29T06:57:13.830Z,100770.22
2022-12-29T07:00:22.683Z,100771.34
2022-12-29T07:03:26.646Z,100774.75
2022-12-29T07:06:29.651Z,100774.19
2022-12-29T07:09:32.579Z,100769.94
2022-12-29T07:12:35.526Z,100775.50
2022-12-29T07:15:38.922Z,100774.38
2022-12-29T07:18:41.706Z,100773.00
2022-12-29T07:21:47.623Z,100765.13
2022-12-29T07:24:50.482Z,100762.34
2022-12-29T07:27:53.325Z,100755.34
2022-12-29T07:30:56.199Z,100760.31
2022-12-29T07:33:58.994Z,100752.09
2022-12-29T07:37:01.713Z,100751.66
2022-12-29T07:40:05.728Z,100750.66
2022-12-29T07:43:10.436Z,100749.25
2022-12-29T07:46:54.025Z,100749.63
2022-12-29T07:49:36.590Z,100749.78
2022-12-29T07:52:39.779Z,100748.94
2022-12-29T07:55:42.590Z,100752.06
2022-12-29T07:58:45.398Z,100762.50
2022-12-29T08:01:48.797Z,100755.50
2022-12-29T08:04:51.744Z,100760.28
2022-12-29T08:07:54.641Z,100762.47
2022-12-29T08:10:57.579Z,100747.84
2022-12-29T08:14:01.021Z,100746.22
2022-12-29T08:17:04.485Z,100737.16
2022-12-29T08:20:08.138Z,100743.38
2022-12-29T08:23:13.944Z,100725.25
2022-12-29T08:26:17.230Z,100745.72
2022-12-29T08:29:21.139Z,100753.81
2022-12-29T08:32:28.402Z,100751.28
2022-12-29T08:35:31.224Z,100746.59
2022-12-29T08:38:35.427Z,100747.41
2022-12-29T08:41:38.612Z,100754.16
2022-12-29T08:44:41.639Z,100769.50
2022-12-29T08:47:44.522Z,100758.91
2022-12-29T08:50:48.063Z,100751.16
2022-12-29T08:53:52.849Z,100759.94
2022-12-29T08:56:56.737Z,100758.56
2022-12-29T08:59:59.584Z,100760.84
2022-12-29T09:03:02.850Z,100763.88
2022-12-29T09:06:05.864Z,100766.37
2022-12-29T09:09:09.390Z,100751.78
2022-12-29T09:12:12.306Z,100754.44
2022-12-29T09:15:16.734Z,100764.47
2022-12-29T09:18:21.694Z,100756.28
2022-12-29T09:21:24.691Z,100760.47
2022-12-29T09:24:27.685Z,100750.34
2022-12-29T09:27:31.295Z,100751.31
2022-12-29T09:30:34.105Z,100741.25
2022-12-29T09:33:37.198Z,100732.03
2022-12-29T09:36:40.166Z,100718.69
2022-12-29T09:39:43.038Z,100726.25
2022-12-29T09:42:57.434Z,100723.62
2022-12-29T09:46:20.738Z,100719.81
2022-12-29T09:49:31.571Z,100723.00
2022-12-29T09:52:44.563Z,100724.50
2022-12-29T09:55:51.100Z,100719.06
2022-12-29T09:59:14.605Z,100713.06
2022-12-29T10:02:30.949Z,100715.41
2022-12-29T10:05:47.740Z,100718.25
2022-12-29T10:09:02.615Z,100712.41
2022-12-29T10:12:33.091Z,100707.75
2022-12-29T10:15:51.210Z,100707.28
2022-12-29T10:19:04.632Z,100703.72
2022-12-29T10:22:26.240Z,100701.50
2022-12-29T10:25:33.206Z,100692.16
2022-12-29T10:28:41.691Z,100690.28
2022-12-29T10:32:00.475Z,100678.16
2022-12-29T10:35:25.068Z,100687.03
2022-12-29T10:39:04.624Z,100671.47
2022-12-29T10:42:30.413Z,100685.78
2022-12-29T10:45:35.313Z,100685.09
2022-12-29T10:48:38.070Z,100685.97
2022-12-29T10:51:43.502Z,100674.03
2022-12-29T10:55:05.054Z,100667.91
2022-12-29T10:58:08.583Z,100656.63
2022-12-29T11:01:13.780Z,100659.72
2022-12-29T11:04:41.917Z,100670.25
2022-12-29T11:07:44.951Z,100653.47
2022-12-29T11:10:48.270Z,100653.59
2022-12-29T11:13:52.477Z,100648.78
2022-12-29T11:17:06.026Z,100652.09
2022-12-29T11:20:31.844Z,100642.44
2022-12-29T11:23:40.043Z,100641.59
2022-12-29T11:26:45.158Z,100645.34
2022-12-29T11:29:48.174Z,100643.75
2022-12-29T11:32:55.649Z,100655.13
2022-12-29T11:36:28.149Z,100651.81
2022-12-29T11:39:33.357Z,100638.75
2022-12-29T11:42:41.162Z,100639.56
2022-12-29T11:45:47.316Z,100634.13
2022-12-29T11:48:51.220Z,100641.75
2022-12-29T11:51:56.488Z,100666.19
2022-12-29T11:54:59.438Z,100643.81
2022-12-29T11:58:04.555Z,100635.56
2022-12-29T12:01:37.685Z,100638.47
2022-12-29T12:04:40.623Z,100636.56
2022-12-29T12:07:47.459Z,100640.94
2022-12-29T12:10:56.119Z,100640.31
2022-12-29T12:14:19.836Z,100644.19
2022-12-29T12:17:47.767Z,100634.97
2022-12-29T12:20:57.772Z,100627.91
2022-12-29T12:24:09.968Z,100621.94
2022-12-29T12:27:18.869Z,100624.75
2022-12-29T12:30:25.511Z,100633.63
2022-12-29T12:33:43.202Z,100620.34
2022-12-29T12:36:59.113Z,100615.22
2022-12-29T12:40:29.956Z,100614.62
2022-12-29T12:43:51.405Z,100601.47
2022-12-29T12:47:08.307Z,100602.84
2022-12-29T12:50:17.209Z,100592.91
2022-12-29T12:54:01.276Z,100590.50
2022-12-29T12:57:26.213Z,100588.03
2022-12-29T13:00:29.539Z,100588.66
2022-12-29T13:04:00.998Z,100589.47
2022-12-29T13:07:39.051Z,100598.38
2022-12-29T13:11:00.785Z,100598.12
2022-12-29T13:14:38.148Z,100590.41
2022-12-29T13:17:52.886Z,100583.84
2022-12-29T13:21:05.037Z,100588.28
2022-12-29T13:24:32.670Z,100588.78
2022-12-29T13:27:46.059Z,100602.63
2022-12-29T13:31:06.577Z,100593.66
2022-12-29T13:34:27.715Z,100589.22
2022-12-29T13:37:33.087Z,100590.50
2022-12-29T13:40:41.618Z,100594.56
2022-12-29T13:43:47.982Z,100602.38
2022-12-29T13:46:51.056Z,100603.69
2022-12-29T13:49:54.381Z,100604.81
2022-12-29T13:53:07.888Z,100604.72
2022-12-29T13:56:21.934Z,100610.69
2022-12-29T13:59:43.859Z,100602.75
2022-12-29T14:02:46.981Z,100618.72
2022-12-29T14:06:07.252Z,100619.72
2022-12-29T14:09:35.579Z,100611.91
2022-12-29T14:12:43.567Z,100612.56
2022-12-29T14:16:00.045Z,100620.47
2022-12-29T14:19:18.758Z,100631.22
2022-12-29T14:22:32.941Z,100628.22
2022-12-29T14:25:56.611Z,100628.13
2022-12-29T14:29:25.744Z,100627.88
2022-12-29T14:32:28.489Z,100622.09
2022-12-29T14:35:53.336Z,100627.47
2022-12-29T14:38:56.253Z,100620.37
2022-12-29T14:42:04.861Z,100621.31
2022-12-29T14:45:24.058Z,100619.78
2022-12-29T14:48:37.796Z,100619.38
2022-12-29T14:51:40.834Z,100623.13
2022-12-29T14:54:46.802Z,100615.16
2022-12-29T14:57:52.073Z,100626.50
2022-12-29T15:00:56.224Z,100635.94
2022-12-29T15:04:02.461Z,100629.59
2022-12-29T15:07:09.335Z,100634.69
2022-12-29T15:10:16.921Z,100637.31
2022-12-29T15:13:24.848Z,100635.06
2022-12-29T15:16:30.966Z,100633.13
2022-12-29T15:19:34.427Z,100623.87
2022-12-29T15:22:38.921Z,100620.69
2022-12-29T15:26:11.524Z,100631.38
2022-12-29T15:29:40.509Z,100637.81
2022-12-29T15:32:48.469Z,100636.53
2022-12-29T15:35:52.942Z,100631.13
2022-12-29T15:38:57.519Z,100629.00
2022-12-29T15:42:22.048Z,100623.47
2022-12-29T15:45:31.977Z,100629.53
2022-12-29T15:48:34.947Z,100622.91
2022-12-29T15:51:39.944Z,100623.16
2022-12-29T15:54:43.833Z,100629.50
2022-12-29T15:57:46.615Z,100630.00
2022-12-29T16:00:58.883Z,100633.00
2022-12-29T16:04:05.773Z,100628.03
2022-12-29T16:07:26.111Z,100620.34
2022-12-29T16:10:40.066Z,100627.63
2022-12-29T16:13:42.947Z,100629.34
2022-12-29T16:16:47.006Z,100635.03
2022-12-29T16:19:56.114Z,100630.91
2022-12-29T16:23:00.534Z,100634.97
2022-12-29T16:26:05.309Z,100631.09
2022-12-29T16:29:09.438Z,100627.19
2022-12-29T16:32:32.469Z,100627.72
2022-12-29T16:35:44.415Z,100618.72
2022-12-29T16:38:47.758Z,100618.41
2022-12-29T16:41:51.563Z,100626.56
2022-12-29T16:45:10.863Z,100628.47
2022-12-29T16:48:23.718Z,100629.81
2022-12-29T16:51:36.032Z,100633.37
2022-12-29T16:54:40.082Z,100629.47
2022-12-29T16:57:44.417Z,100632.22
2022-12-29T17:00:47.989Z,100629.72
